createdAt,value
2022-08-20T00:01:05.484Z,10.82
2022-08-20T00:03:35.800Z,15.90
2022-08-20T00:06:07.471Z,17.15
2022-08-20T00:08:34.462Z,11.77
2022-08-20T00:11:02.339Z,13.63
2022-08-20T00:13:50.907Z,13.93
2022-08-20T00:16:20.181Z,11.98
2022-08-20T00:18:47.857Z,16.27
2022-08-20T00:21:19.056Z,13.30
2022-08-20T00:23:48.896Z,15.10
2022-08-20T00:26:16.181Z,11.35
2022-08-20T00:28:43.915Z,19.75
2022-08-20T00:31:14.544Z,15.60
2022-08-20T00:33:41.865Z,16.40
2022-08-20T00:36:11.093Z,10.88
2022-08-20T00:38:42.752Z,12.68
2022-08-20T00:41:13.915Z,13.60
2022-08-20T00:43:48.595Z,13.20
2022-08-20T00:46:22.703Z,11.77
2022-08-20T00:48:58.637Z,10.65
2022-08-20T00:51:29.916Z,14.40
2022-08-20T00:54:02.851Z,22.63
2022-08-20T00:56:34.006Z,11.80
2022-08-20T00:59:02.053Z,15.93
2022-08-20T01:01:29.813Z,15.25
2022-08-20T01:03:57.641Z,13.40
2022-08-20T01:06:25.244Z,20.23
2022-08-20T01:08:52.806Z,26.58
2022-08-20T01:11:30.892Z,12.45
2022-08-20T01:14:28.786Z,16.85
2022-08-20T01:17:00.595Z,13.13
2022-08-20T01:20:05.801Z,10.25
2022-08-20T01:23:00.926Z,15.93
2022-08-20T01:25:51.032Z,12.18
2022-08-20T01:28:29.742Z,12.27
2022-08-20T01:30:56.995Z,17.55
2022-08-20T01:33:24.598Z,15.27
2022-08-20T01:35:53.724Z,14.85
2022-08-20T01:38:20.887Z,14.32
2022-08-20T01:41:21.888Z,17.42
2022-08-20T01:43:58.845Z,15.68
2022-08-20T01:46:33.331Z,12.25
2022-08-20T01:49:23.062Z,13.55
2022-08-20T01:51:52.581Z,9.48
2022-08-20T01:54:20.536Z,15.75
2022-08-20T01:56:55.508Z,20.15
2022-08-20T01:59:23.057Z,15.48
2022-08-20T02:01:50.704Z,12.07
2022-08-20T02:04:18.402Z,14.82
2022-08-20T02:06:57.260Z,12.43
2022-08-20T02:09:30.493Z,11.77
2022-08-20T02:11:58.598Z,15.85
2022-08-20T02:14:27.278Z,13.65
2022-08-20T02:16:55.179Z,13.52
2022-08-20T02:20:09.151Z,19.48
2022-08-20T02:22:55.697Z,15.57
2022-08-20T02:25:26.761Z,12.32
2022-08-20T02:27:56.014Z,15.05
2022-08-20T02:30:28.774Z,17.58
2022-08-20T02:32:57.910Z,12.80
2022-08-20T02:35:26.185Z,13.18
2022-08-20T02:37:54.417Z,12.35
2022-08-20T02:40:27.337Z,16.70
2022-08-20T02:42:59.968Z,18.38
2022-08-20T02:45:28.230Z,14.75
2022-08-20T02:47:57.191Z,17.33
2022-08-20T02:50:26.314Z,15.70
2022-08-20T02:52:53.378Z,18.02
2022-08-20T02:55:25.989Z,15.48
2022-08-20T02:57:58.564Z,13.88
2022-08-20T03:00:27.486Z,14.75
2022-08-20T03:02:54.462Z,17.60
2022-08-20T03:05:21.460Z,14.98
2022-08-20T03:07:53.554Z,12.35
2022-08-20T03:10:26.235Z,17.63
2022-08-20T03:12:53.116Z,13.85
2022-08-20T03:15:20.547Z,15.30
2022-08-20T03:17:47.831Z,15.68
2022-08-20T03:20:15.979Z,15.52
2022-08-20T03:22:43.051Z,19.23
2022-08-20T03:25:10.858Z,23.83
2022-08-20T03:27:38.407Z,15.82
2022-08-20T03:30:09.333Z,19.33
2022-08-20T03:32:36.680Z,18.30
2022-08-20T03:35:07.383Z,20.88
2022-08-20T03:37:36.097Z,15.82
2022-08-20T03:40:09.692Z,17.92
2022-08-20T03:42:37.312Z,18.63
2022-08-20T03:45:04.836Z,18.42
2022-08-20T03:47:32.139Z,19.00
2022-08-20T03:50:03.978Z,18.27
2022-08-20T03:52:31.627Z,16.92
2022-08-20T03:54:59.321Z,17.58
2022-08-20T03:57:27.563Z,20.55
2022-08-20T03:59:54.934Z,16.98
2022-08-20T04:02:25.711Z,15.68
2022-08-20T04:04:52.624Z,18.15
2022-08-20T04:07:25.939Z,25.27
2022-08-20T04:09:53.970Z,18.98
2022-08-20T04:12:21.416Z,20.70
2022-08-20T04:14:48.741Z,19.30
2022-08-20T04:17:18.409Z,15.10
2022-08-20T04:19:47.614Z,28.05
2022-08-20T04:22:14.547Z,17.42
2022-08-20T04:24:42.919Z,23.23
2022-08-20T04:27:11.000Z,22.52
2022-08-20T04:29:43.435Z,14.55
2022-08-20T04:32:12.291Z,15.77
2022-08-20T04:34:40.661Z,22.40
2022-08-20T04:37:16.912Z,14.80
2022-08-20T04:39:44.362Z,20.02
2022-08-20T04:42:11.298Z,15.68
2022-08-20T04:44:39.858Z,22.00
2022-08-20T04:47:07.839Z,17.95
2022-08-20T04:49:35.149Z,30.80
2022-08-20T04:52:03.271Z,18.40
2022-08-20T04:54:31.455Z,14.45
2022-08-20T04:57:01.359Z,18.40
2022-08-20T04:59:28.972Z,22.42
2022-08-20T05:01:55.858Z,12.60
2022-08-20T05:04:22.760Z,16.70
2022-08-20T05:06:49.699Z,17.13
2022-08-20T05:09:16.953Z,16.58
2022-08-20T05:11:43.911Z,16.42
2022-08-20T05:14:11.180Z,15.23
2022-08-20T05:16:39.498Z,18.88
2022-08-20T05:19:09.023Z,15.00
2022-08-20T05:21:36.441Z,18.35
2022-08-20T05:24:03.647Z,17.35
2022-08-20T05:26:30.563Z,17.13
2022-08-20T05:28:58.559Z,15.13
2022-08-20T05:31:32.412Z,20.15
2022-08-20T05:34:12.125Z,17.48
2022-08-20T05:36:47.041Z,18.15
2022-08-20T05:39:15.715Z,19.10
2022-08-20T05:41:43.351Z,19.73
2022-08-20T05:44:13.610Z,17.95
2022-08-20T05:46:42.846Z,16.55
2022-08-20T05:49:16.303Z,19.08
2022-08-20T05:51:44.151Z,21.85
2022-08-20T05:54:11.708Z,18.98
2022-08-20T05:56:39.576Z,21.33
2022-08-20T05:59:10.273Z,15.75
2022-08-20T06:01:39.182Z,18.70
2022-08-20T06:04:32.603Z,18.92
2022-08-20T06:07:06.483Z,17.13
2022-08-20T06:09:33.993Z,14.70
2022-08-20T06:12:03.067Z,15.88
2022-08-20T06:14:30.562Z,16.40
2022-08-20T06:17:03.980Z,17.02
2022-08-20T06:19:32.386Z,17.42
2022-08-20T06:22:01.204Z,16.85
2022-08-20T06:24:28.730Z,14.13
2022-08-20T06:27:04.733Z,19.45
2022-08-20T06:29:35.059Z,25.83
2022-08-20T06:32:02.089Z,18.58
2022-08-20T06:34:30.798Z,17.80
2022-08-20T06:37:00.067Z,19.58
2022-08-20T06:39:30.061Z,17.15
2022-08-20T06:41:58.744Z,18.85
2022-08-20T06:44:26.265Z,14.27
2022-08-20T06:46:53.710Z,15.48
2022-08-20T06:49:20.609Z,23.08
2022-08-20T06:51:51.863Z,20.05
2022-08-20T06:54:19.024Z,18.27
2022-08-20T06:56:46.303Z,19.67
2022-08-20T06:59:13.466Z,29.35
2022-08-20T07:01:40.859Z,17.33
2022-08-20T07:04:08.513Z,17.42
2022-08-20T07:06:35.436Z,16.00
2022-08-20T07:09:02.493Z,19.83
2022-08-20T07:11:29.775Z,20.98
2022-08-20T07:13:58.540Z,18.85
2022-08-20T07:16:25.967Z,20.60
2022-08-20T07:18:53.335Z,16.30
2022-08-20T07:21:20.711Z,18.67
2022-08-20T07:23:49.466Z,14.63
2022-08-20T07:26:17.086Z,19.17
2022-08-20T07:28:44.052Z,11.32
2022-08-20T07:31:31.248Z,11.88
2022-08-20T07:33:58.827Z,21.83
2022-08-20T07:36:27.284Z,11.40
2022-08-20T07:38:54.752Z,16.08
2022-08-20T07:41:24.179Z,13.38
2022-08-20T07:43:51.147Z,13.77
2022-08-20T07:46:21.631Z,12.48
2022-08-20T07:48:50.642Z,13.07
2022-08-20T07:51:20.627Z,16.73
2022-08-20T07:53:48.727Z,14.38
2022-08-20T07:56:19.585Z,15.00
2022-08-20T07:58:53.559Z,13.55
2022-08-20T08:01:25.908Z,8.48
2022-08-20T08:03:53.073Z,12.82
2022-08-20T08:06:29.278Z,15.73
2022-08-20T08:09:13.479Z,11.50
2022-08-20T08:11:47.806Z,17.08
2022-08-20T08:14:17.153Z,16.63
2022-08-20T08:16:45.356Z,13.43
2022-08-20T08:19:15.222Z,14.05
2022-08-20T08:21:43.626Z,13.65
2022-08-20T08:24:12.688Z,19.65
2022-08-20T08:26:41.347Z,12.55
2022-08-20T08:29:08.280Z,14.65
2022-08-20T08:31:35.472Z,16.80
2022-08-20T08:34:02.379Z,13.30
2022-08-20T08:36:29.366Z,13.65
2022-08-20T08:38:56.711Z,15.98
2022-08-20T08:41:34.452Z,8.98
2022-08-20T08:44:07.024Z,15.27
2022-08-20T08:46:40.397Z,10.55
2022-08-20T08:49:09.793Z,15.45
2022-08-20T08:51:47.993Z,12.13
2022-08-20T08:54:18.672Z,10.02
2022-08-20T08:56:49.761Z,12.13
2022-08-20T08:59:18.640Z,18.67
2022-08-20T09:01:53.708Z,20.65
2022-08-20T09:04:33.020Z,12.75
2022-08-20T09:07:02.954Z,14.82
2022-08-20T09:09:33.956Z,14.30
2022-08-20T09:12:12.489Z,10.77
2022-08-20T09:14:40.034Z,16.50
2022-08-20T09:17:07.770Z,14.73
2022-08-20T09:19:34.670Z,14.25
2022-08-20T09:22:09.300Z,13.88
2022-08-20T09:24:36.373Z,12.27
2022-08-20T09:27:03.359Z,16.40
2022-08-20T09:29:30.359Z,13.30
2022-08-20T09:32:09.318Z,15.63
2022-08-20T09:34:56.577Z,13.70
2022-08-20T09:37:27.004Z,15.25
2022-08-20T09:39:54.306Z,10.32
2022-08-20T09:42:24.078Z,13.65
2022-08-20T09:44:51.623Z,11.07
2022-08-20T09:47:18.640Z,13.23
2022-08-20T09:49:45.928Z,16.23
2022-08-20T09:52:40.673Z,10.23
2022-08-20T09:55:36.420Z,13.45
2022-08-20T09:58:07.629Z,10.25
2022-08-20T10:00:34.546Z,8.98
2022-08-20T10:03:03.394Z,16.45
2022-08-20T10:05:31.651Z,14.23
2022-08-20T10:08:00.054Z,13.32
2022-08-20T10:10:27.208Z,15.90
2022-08-20T10:12:54.989Z,13.63
2022-08-20T10:15:22.155Z,12.95
2022-08-20T10:17:49.260Z,8.25
2022-08-20T10:20:18.341Z,12.63
2022-08-20T10:22:45.510Z,15.75
2022-08-20T10:25:12.728Z,11.90
2022-08-20T10:27:40.573Z,15.07
2022-08-20T10:30:08.127Z,11.75
2022-08-20T10:32:35.176Z,14.13
2022-08-20T10:35:02.106Z,10.68
2022-08-20T10:37:29.246Z,14.30
2022-08-20T10:39:56.725Z,9.95
2022-08-20T10:42:23.930Z,8.75
2022-08-20T10:44:50.908Z,7.75
2022-08-20T10:47:22.819Z,14.18
2022-08-20T10:49:52.962Z,8.38
2022-08-20T10:52:20.662Z,14.57
2022-08-20T10:54:48.090Z,13.35
2022-08-20T10:57:18.543Z,11.75
2022-08-20T10:59:48.015Z,12.10
2022-08-20T11:02:15.559Z,14.77
2022-08-20T11:04:42.902Z,12.15
2022-08-20T11:07:14.328Z,13.65
2022-08-20T11:09:41.805Z,14.70
2022-08-20T11:12:09.244Z,6.60
2022-08-20T11:14:36.220Z,8.65
2022-08-20T11:17:03.981Z,11.95
2022-08-20T11:19:31.037Z,13.85
2022-08-20T11:21:57.919Z,21.13
2022-08-20T11:24:25.155Z,11.20
2022-08-20T11:26:53.462Z,7.43
2022-08-20T11:29:22.634Z,10.82
2022-08-20T11:31:49.580Z,10.35
2022-08-20T11:34:16.654Z,13.07
2022-08-20T11:36:45.320Z,9.05
2022-08-20T11:39:12.759Z,11.57
2022-08-20T11:41:40.410Z,13.65
2022-08-20T11:44:20.747Z,11.70
2022-08-20T11:46:48.476Z,8.20
2022-08-20T11:49:15.445Z,13.40
2022-08-20T11:51:49.652Z,9.63
2022-08-20T11:54:17.602Z,11.60
2022-08-20T11:56:46.113Z,11.52
2022-08-20T11:59:13.681Z,15.77
2022-08-20T12:01:40.684Z,8.85
2022-08-20T12:04:13.811Z,10.73
2022-08-20T12:06:40.784Z,12.82
2022-08-20T12:09:08.010Z,19.42
2022-08-20T12:11:34.893Z,9.70
2022-08-20T12:14:01.904Z,8.57
2022-08-20T12:16:28.802Z,10.23
2022-08-20T12:18:55.973Z,14.55
2022-08-20T12:21:22.946Z,8.52
2022-08-20T12:23:50.067Z,12.68
2022-08-20T12:26:17.227Z,9.35
2022-08-20T12:28:44.694Z,10.32
2022-08-20T12:31:11.577Z,10.25
2022-08-20T12:33:38.763Z,9.57
2022-08-20T12:36:06.207Z,11.38
2022-08-20T12:38:33.239Z,10.45
2022-08-20T12:41:00.819Z,8.55
2022-08-20T12:43:28.061Z,12.38
2022-08-20T12:45:54.986Z,8.60
2022-08-20T12:48:21.909Z,9.32
2022-08-20T12:50:50.327Z,6.90
2022-08-20T12:53:17.453Z,16.73
2022-08-20T12:55:45.065Z,7.43
2022-08-20T12:58:12.469Z,11.25
2022-08-20T13:00:44.368Z,10.18
2022-08-20T13:03:17.396Z,10.63
2022-08-20T13:05:44.313Z,11.70
2022-08-20T13:08:12.885Z,6.97
2022-08-20T13:10:44.535Z,11.45
2022-08-20T13:13:17.683Z,12.32
2022-08-20T13:15:48.730Z,7.68
2022-08-20T13:18:15.890Z,7.57
2022-08-20T13:20:45.889Z,10.60
2022-08-20T13:23:13.111Z,11.13
2022-08-20T13:25:40.106Z,7.07
2022-08-20T13:28:07.165Z,7.38
2022-08-20T13:30:36.867Z,10.30
2022-08-20T13:33:04.458Z,5.13
2022-08-20T13:35:31.546Z,9.20
2022-08-20T13:37:58.500Z,7.25
2022-08-20T13:40:26.013Z,10.85
2022-08-20T13:42:52.939Z,11.02
2022-08-20T13:45:20.447Z,10.07
2022-08-20T13:47:51.612Z,11.15
2022-08-20T13:50:21.535Z,6.35
2022-08-20T13:52:48.732Z,8.35
2022-08-20T13:55:18.940Z,9.43
2022-08-20T13:57:47.483Z,10.18
2022-08-20T14:00:21.156Z,14.32
2022-08-20T14:02:58.693Z,11.07
2022-08-20T14:05:25.731Z,8.00
2022-08-20T14:07:52.675Z,10.32
2022-08-20T14:10:24.436Z,11.27
2022-08-20T14:12:51.535Z,9.02
2022-08-20T14:15:19.257Z,10.57
2022-08-20T14:17:55.269Z,7.47
2022-08-20T14:20:25.578Z,7.03
2022-08-20T14:22:57.617Z,7.03
2022-08-20T14:25:26.105Z,11.20
2022-08-20T14:27:54.506Z,7.20
2022-08-20T14:30:25.112Z,7.82
2022-08-20T14:32:52.359Z,6.22
2022-08-20T14:35:20.042Z,5.90
2022-08-20T14:37:52.866Z,6.00
2022-08-20T14:40:23.632Z,8.20
2022-08-20T14:42:51.462Z,6.60
2022-08-20T14:45:20.783Z,6.32
2022-08-20T14:47:54.180Z,8.38
2022-08-20T14:50:26.378Z,10.02
2022-08-20T14:52:54.144Z,7.88
2022-08-20T14:55:24.356Z,7.88
2022-08-20T14:57:51.496Z,8.80
2022-08-20T15:00:22.801Z,8.27
2022-08-20T15:02:49.802Z,9.20
2022-08-20T15:05:17.637Z,4.70
2022-08-20T15:07:48.600Z,7.03
2022-08-20T15:10:19.914Z,7.68
2022-08-20T15:12:47.112Z,10.13
2022-08-20T15:15:16.253Z,4.28
2022-08-20T15:17:49.458Z,12.68
2022-08-20T15:20:20.138Z,9.25
2022-08-20T15:22:48.643Z,5.30
2022-08-20T15:25:19.008Z,7.80
2022-08-20T15:27:47.138Z,16.30
2022-08-20T15:30:18.469Z,8.30
2022-08-20T15:32:45.812Z,7.57
2022-08-20T15:35:13.337Z,8.32
2022-08-20T15:37:46.434Z,7.43
2022-08-20T15:40:17.151Z,7.80
2022-08-20T15:42:46.683Z,5.10
2022-08-20T15:45:21.861Z,8.93
2022-08-20T15:48:17.357Z,8.52
2022-08-20T15:51:15.299Z,7.30
2022-08-20T15:53:47.941Z,6.68
2022-08-20T15:59:16.400Z,6.88
2022-08-20T16:01:54.115Z,7.30
2022-08-20T16:04:42.507Z,10.45
2022-08-20T16:07:25.340Z,9.45
2022-08-20T16:12:40.782Z,5.50
2022-08-20T16:15:18.853Z,9.52
2022-08-20T16:18:09.016Z,9.68
2022-08-20T16:20:52.806Z,6.65
2022-08-20T16:23:25.363Z,11.48
2022-08-20T16:26:30.012Z,5.47
2022-08-20T16:29:13.609Z,4.35
2022-08-20T16:32:21.600Z,5.55
2022-08-20T16:34:53.677Z,6.05
2022-08-20T16:37:20.497Z,6.28
2022-08-20T16:40:07.355Z,8.32
2022-08-20T16:42:38.855Z,7.03
2022-08-20T16:45:10.146Z,6.10
2022-08-20T16:47:40.860Z,9.25
2022-08-20T16:50:19.989Z,10.52
2022-08-20T16:52:47.927Z,7.28
2022-08-20T16:55:16.179Z,3.88
2022-08-20T16:57:44.651Z,5.45
2022-08-20T17:00:23.780Z,5.05
2022-08-20T17:02:52.144Z,8.13
2022-08-20T17:05:19.742Z,9.23
2022-08-20T17:07:53.619Z,6.07
2022-08-20T17:10:26.091Z,7.03
2022-08-20T17:13:17.123Z,6.35
2022-08-20T17:15:53.213Z,5.78
2022-08-20T17:18:38.641Z,6.93
2022-08-20T17:21:15.704Z,6.47
2022-08-20T17:23:56.118Z,7.50
2022-08-20T17:26:36.308Z,6.43
2022-08-20T17:29:19.437Z,6.80
2022-08-20T17:31:50.399Z,7.75
2022-08-20T17:34:26.994Z,7.90
2022-08-20T17:36:58.190Z,5.47
2022-08-20T17:39:28.185Z,9.40
2022-08-20T17:42:06.403Z,6.97
2022-08-20T17:44:37.828Z,6.13
2022-08-20T17:47:12.456Z,8.70
2022-08-20T17:49:57.451Z,7.47
2022-08-20T17:52:43.884Z,6.43
2022-08-20T17:55:12.340Z,6.35
2022-08-20T17:57:43.146Z,9.10
2022-08-20T18:00:24.257Z,7.85
2022-08-20T18:02:55.048Z,5.65
2022-08-20T18:05:22.383Z,4.93
2022-08-20T18:08:09.286Z,4.90
2022-08-20T18:11:03.988Z,7.38
2022-08-20T18:13:48.111Z,8.60
2022-08-20T18:16:25.470Z,12.40
2022-08-20T18:19:19.788Z,4.57
2022-08-20T18:21:49.637Z,7.88
2022-08-20T18:24:40.688Z,10.55
2022-08-20T18:27:16.385Z,7.15
2022-08-20T18:29:46.705Z,11.18
2022-08-20T18:32:43.755Z,11.35
2022-08-20T18:35:18.226Z,8.60
2022-08-20T18:37:45.480Z,11.73
2022-08-20T18:40:33.248Z,13.68
2022-08-20T18:43:12.784Z,6.20
2022-08-20T18:45:39.942Z,11.10
2022-08-20T18:48:07.763Z,7.35
2022-08-20T18:50:40.845Z,7.18
2022-08-20T18:53:22.133Z,8.45
2022-08-20T18:56:13.661Z,8.85
2022-08-20T18:58:55.165Z,10.27
2022-08-20T19:01:22.158Z,11.48
2022-08-20T19:03:53.325Z,11.05
2022-08-20T19:06:34.075Z,9.82
2022-08-20T19:09:04.872Z,9.60
2022-08-20T19:11:53.353Z,10.95
2022-08-20T19:14:23.254Z,10.32
2022-08-20T19:16:58.019Z,14.27
2022-08-20T19:19:28.489Z,8.57
2022-08-20T19:22:00.763Z,12.68
2022-08-20T19:24:31.184Z,5.55
2022-08-20T19:27:04.915Z,11.02
2022-08-20T19:29:47.464Z,9.70
2022-08-20T19:32:24.239Z,10.80
2022-08-20T19:34:54.030Z,8.00
2022-08-20T19:37:35.070Z,8.57
2022-08-20T19:40:18.597Z,20.35
2022-08-20T19:42:46.373Z,8.35
2022-08-20T19:45:30.718Z,11.13
2022-08-20T19:48:16.082Z,8.82
2022-08-20T19:51:06.488Z,7.03
2022-08-20T19:53:36.582Z,14.85
2022-08-20T19:56:16.517Z,9.45
2022-08-20T19:58:43.857Z,20.33
2022-08-20T20:01:17.372Z,9.75
2022-08-20T20:04:00.161Z,9.63
2022-08-20T20:06:28.839Z,7.47
2022-08-20T20:09:00.020Z,8.75
2022-08-20T20:11:49.589Z,8.80
2022-08-20T20:14:18.553Z,9.65
2022-08-20T20:16:48.816Z,11.38
2022-08-20T20:19:32.941Z,12.90
2022-08-20T20:22:18.690Z,9.13
2022-08-20T20:24:50.837Z,11.52
2022-08-20T20:27:26.816Z,10.85
2022-08-20T20:30:04.114Z,9.38
2022-08-20T20:32:34.302Z,8.30
2022-08-20T20:35:04.487Z,10.13
2022-08-20T20:37:49.696Z,9.30
2022-08-20T20:40:33.967Z,8.40
2022-08-20T20:43:10.652Z,14.52
2022-08-20T20:45:58.896Z,7.30
2022-08-20T20:48:28.496Z,10.57
2022-08-20T20:51:11.831Z,14.73
2022-08-20T20:53:53.389Z,7.45
2022-08-20T20:56:32.029Z,9.50
2022-08-20T20:59:04.004Z,8.45
2022-08-20T21:01:49.578Z,9.30
2022-08-20T21:04:21.831Z,6.68
2022-08-20T21:06:49.822Z,7.47
2022-08-20T21:09:17.031Z,9.70
2022-08-20T21:11:44.233Z,10.63
2022-08-20T21:14:11.366Z,7.10
2022-08-20T21:16:38.504Z,17.95
2022-08-20T21:19:06.823Z,12.95
2022-08-20T21:21:34.157Z,14.43
2022-08-20T21:24:01.033Z,10.50
2022-08-20T21:26:28.473Z,6.88
2022-08-20T21:28:55.760Z,7.47
2022-08-20T21:31:26.354Z,7.40
2022-08-20T21:33:53.331Z,8.75
2022-08-20T21:36:20.205Z,8.70
2022-08-20T21:38:47.140Z,9.07
2022-08-20T21:41:14.961Z,9.82
2022-08-20T21:43:42.536Z,9.18
2022-08-20T21:46:12.916Z,9.15
2022-08-20T21:48:43.211Z,8.55
2022-08-20T21:51:12.491Z,7.50
2022-08-20T21:53:39.419Z,10.07
2022-08-20T21:56:06.936Z,11.20
2022-08-20T21:58:33.988Z,8.80
2022-08-20T22:01:04.378Z,6.68
2022-08-20T22:03:34.721Z,10.00
2022-08-20T22:06:07.650Z,6.53
2022-08-20T22:08:34.997Z,7.18
2022-08-20T22:11:02.422Z,7.45
2022-08-20T22:13:32.859Z,5.72
2022-08-20T22:16:04.701Z,7.30
2022-08-20T22:18:32.096Z,5.97
2022-08-20T22:20:59.476Z,8.15
2022-08-20T22:23:27.093Z,6.97
2022-08-20T22:25:54.160Z,6.85
2022-08-20T22:28:21.394Z,6.30
2022-08-20T22:30:48.477Z,6.78
2022-08-20T22:33:21.174Z,8.60
2022-08-20T22:35:59.454Z,10.20
2022-08-20T22:38:26.873Z,7.28
2022-08-20T22:40:54.197Z,9.75
2022-08-20T22:43:23.320Z,6.53
2022-08-20T22:45:57.833Z,9.30
2022-08-20T22:48:25.535Z,10.60
2022-08-20T22:50:53.219Z,8.00
2022-08-20T22:53:21.966Z,9.50
2022-08-20T22:55:49.341Z,9.27
2022-08-20T22:58:17.339Z,6.55
2022-08-20T23:00:46.444Z,6.10
2022-08-20T23:03:15.514Z,6.03
2022-08-20T23:05:46.318Z,9.82
2022-08-20T23:08:13.430Z,6.65
2022-08-20T23:10:41.011Z,8.25
2022-08-20T23:13:08.103Z,6.32
2022-08-20T23:15:43.402Z,9.80
2022-08-20T23:18:15.979Z,9.70
2022-08-20T23:20:45.510Z,8.20
2022-08-20T23:23:12.444Z,7.80
2022-08-20T23:25:41.180Z,9.30
2022-08-20T23:28:08.133Z,8.25
2022-08-20T23:30:35.468Z,9.40
2022-08-20T23:33:03.567Z,10.15
2022-08-20T23:35:32.985Z,6.38
2022-08-20T23:38:00.242Z,19.90
2022-08-20T23:40:28.556Z,8.00
2022-08-20T23:42:56.736Z,11.70
2022-08-20T23:45:24.255Z,6.65
2022-08-20T23:47:51.330Z,8.68
2022-08-20T23:50:22.340Z,7.05
2022-08-20T23:55:19.551Z,11.00
2022-08-20T23:57:46.464Z,9.25
